If you wish to contribute or participate in the discussions about articles you are invited to join SKYbrary as a registered user

 Actions

Nagasaki Airport

From SKYbrary Wiki

RJFU
Airport
ICAO: RJFU – IATA: NGS
Summary
Name Nagasaki Airport
Region Asia and Pacific
Territory Japan JP.gif
Location Omura, Nagasaki Prefecture
Serving Nagasaki
Elevation 2.438 m
8 ft2.438 m
Coordinates 32° 54' 49.11" N, 129° 55' 6.58" E
Runways
Designator Length Width Surface ROPS
14/32 2999 m9,839.239 ft
61 m200.131 ft
ASP yes/yes
18/36 1326 m4,350.394 ft
30 m98.425 ft
ASP no/no


METAR
Observation RJFU 162300Z 34010KT 9999 FEW030 26/20 Q1009
Station Nagasaki Airport
Date/Time 16 September 2019 23:00:00
Wind direction 340°
Wind speed 10 kts
Lowest cloud amount few clouds
Temperature 26°C
Dew point 20°C
Humidity 69%
QNH 1009 hPa
Weather condition n/a

International airport located 4 km2.16 nm
4,000 m
13,123.36 ft
west of the city of Ōmura and 18 km9.719 nm
18,000 m
59,055.118 ft
the city of Nagasaki, Nagasaki Prefecture, Japan.

Climatology

Humid Sub-tropical climate (Köppen climate classification Cfa)

Maps

Terrain

Loading map...

Airport Layout

Loading map...


Accidents & Serious Incidents at or in vicinity of RJFU

None on SKYbrary